Time;durP1;ratioP1;P1;durP2;ratioP2;P2;SDS_P1;SDS_P2;PMS_P1;PMS_P2;Temp;Humidity;BMP_temperature;BMP_pressure;BME280_temperature;BME280_humidity;BME280_pressure;Samples;Min_cycle;Max_cycle;Signal;HPM_P1;HPM_P2
2021/09/11 07:02:34;;;;;;;17.10;9.38;;;;;;;16.78;100.00;99005.13;4910058;29;20096;-78
2021/09/11 07:04:59;;;;;;;10.95;9.23;;;;;;;16.83;100.00;99003.22;4918229;29;20044;-78
2021/09/11 07:07:25;;;;;;;10.85;9.50;;;;;;;16.89;100.00;99009.06;4918821;29;20032;-78
2021/09/11 07:09:50;;;;;;;13.93;9.38;;;;;;;16.89;100.00;99008.22;4918592;29;20107;-78
2021/09/11 07:12:16;;;;;;;11.90;10.07;;;;;;;16.88;100.00;99006.50;4918559;29;20024;-78
2021/09/11 07:14:43;;;;;;;10.18;8.65;;;;;;;16.89;100.00;99008.22;4919125;29;20028;-76
2021/09/11 07:17:08;;;;;;;11.18;9.07;;;;;;;16.85;100.00;99009.25;4918813;29;20390;-77
2021/09/11 07:19:33;;;;;;;9.20;8.40;;;;;;;16.92;100.00;99008.06;4918359;29;20028;-77
2021/09/11 07:21:59;;;;;;;10.15;8.95;;;;;;;17.02;100.00;99006.81;4899450;29;20032;-77
2021/09/11 07:24:24;;;;;;;10.65;9.30;;;;;;;17.01;100.00;99012.94;4899554;29;20024;-77
2021/09/11 07:26:49;;;;;;;11.35;9.52;;;;;;;17.16;100.00;99007.09;4899476;29;20068;-77
2021/09/11 07:29:15;;;;;;;12.85;7.93;;;;;;;17.17;100.00;99008.78;4899440;29;20623;-77
2021/09/11 07:31:41;;;;;;;7.90;7.10;;;;;;;17.31;100.00;99005.59;4898002;29;20040;-77
2021/09/11 07:34:07;;;;;;;7.93;7.13;;;;;;;17.61;100.00;99019.19;4907093;29;20024;-77
2021/09/11 07:36:32;;;;;;;7.22;6.53;;;;;;;17.69;98.55;99021.44;4899389;29;20029;-77
2021/09/11 07:38:57;;;;;;;7.20;6.50;;;;;;;17.81;97.47;99022.75;4899309;29;20028;-77
2021/09/11 07:41:23;;;;;;;6.55;5.95;;;;;;;17.81;98.29;99025.38;4899088;29;20043;-77
2021/09/11 07:43:48;;;;;;;7.65;6.35;;;;;;;17.86;96.16;99029.47;4899162;29;20028;-77
2021/09/11 07:46:13;;;;;;;7.82;5.63;;;;;;;17.89;95.51;99023.22;4899418;29;20045;-77
2021/09/11 07:48:39;;;;;;;6.20;5.50;;;;;;;17.96;95.25;99020.28;4899456;29;20060;-77
2021/09/11 07:51:04;;;;;;;8.02;5.38;;;;;;;18.19;95.02;99029.75;4887009;29;20391;-77
2021/09/11 07:53:30;;;;;;;5.95;5.45;;;;;;;18.37;94.26;99022.84;4880290;29;20029;-77
2021/09/11 07:55:55;;;;;;;6.47;5.82;;;;;;;18.70;92.60;99028.31;4880357;29;20033;-77
2021/09/11 07:58:20;;;;;;;6.35;5.65;;;;;;;18.71;90.75;99024.78;4880377;29;20032;-77
2021/09/11 08:00:46;;;;;;;5.43;4.95;;;;;;;18.98;89.17;99022.59;4878761;29;20037;-77
2021/09/11 08:03:11;;;;;;;6.97;5.28;;;;;;;19.32;86.55;99025.34;4900953;29;20111;-77
2021/09/11 08:05:37;;;;;;;5.40;4.90;;;;;;;20.29;83.38;99024.72;4912954;29;20030;-77
2021/09/11 08:08:03;;;;;;;4.95;4.45;;;;;;;20.74;80.27;99026.69;4917757;29;20091;-77
2021/09/11 08:10:29;;;;;;;7.45;4.65;;;;;;;21.07;78.29;99028.31;4917724;29;20041;-77
2021/09/11 08:12:54;;;;;;;4.22;3.83;;;;;;;22.67;74.04;99033.69;4914414;29;20056;-77
2021/09/11 08:15:20;;;;;;;5.32;4.40;;;;;;;24.53;65.79;99024.78;4897633;29;20035;-77
2021/09/11 08:17:46;;;;;;;3.88;3.55;;;;;;;25.12;60.92;99024.94;4911501;29;20103;-77
2021/09/11 08:20:13;;;;;;;3.63;3.33;;;;;;;23.85;64.89;99034.75;4912198;29;20214;-77
2021/09/11 08:22:40;;;;;;;4.03;3.65;;;;;;;24.75;61.93;99038.16;4898364;29;20216;-77
2021/09/11 08:25:06;;;;;;;3.58;3.28;;;;;;;23.76;64.76;99038.03;4898040;29;20024;-77
2021/09/11 08:27:31;;;;;;;4.13;3.72;;;;;;;22.17;69.93;99042.97;4898373;29;20025;-77
2021/09/11 08:29:56;;;;;;;3.95;3.65;;;;;;;22.06;72.37;99045.41;4898499;29;20036;-77
2021/09/11 08:32:22;;;;;;;5.03;3.38;;;;;;;21.71;73.56;99044.84;4896989;29;20060;-77
2021/09/11 08:34:47;;;;;;;4.07;3.75;;;;;;;22.00;73.38;99040.47;4906018;29;20028;-77
2021/09/11 08:37:13;;;;;;;6.82;5.60;;;;;;;21.85;72.23;99046.69;4897906;29;20212;-77
2021/09/11 08:39:38;;;;;;;4.13;3.72;;;;;;;21.69;72.94;99031.75;4898176;29;20039;-77
2021/09/11 08:42:04;;;;;;;4.90;3.65;;;;;;;22.30;70.33;99033.38;4897999;29;20048;-77
2021/09/11 08:44:30;;;;;;;3.85;3.45;;;;;;;22.39;71.16;99026.69;4898219;29;20030;-77
2021/09/11 08:46:56;;;;;;;8.13;3.55;;;;;;;23.41;67.51;99026.31;4897402;29;20482;-77
2021/09/11 08:49:22;;;;;;;6.53;3.50;;;;;;;23.89;66.14;99027.47;4898017;29;20047;-77
2021/09/11 08:51:48;;;;;;;3.47;3.17;;;;;;;25.09;62.63;99020.72;4880971;29;20037;-77
2021/09/11 08:54:23;;;;;;;7.63;3.05;;;;;;;26.02;57.38;99035.84;4905496;29;20027;-77
2021/09/11 08:56:50;;;;;;;5.78;3.35;;;;;;;21.44;72.55;99047.34;4914312;29;20021;-77
2021/09/11 08:59:17;;;;;;;3.33;3.03;;;;;;;21.81;73.17;99038.97;4915898;29;20604;-77
2021/09/11 09:01:59;;;;;;;3.67;3.30;;;;;;;22.30;72.60;99038.66;4915126;29;20032;-77
2021/09/11 09:04:41;;;;;;;4.80;3.65;;;;;;;21.32;76.30;99043.59;4908745;29;20032;-77
2021/09/11 09:07:07;;;;;;;5.45;3.47;;;;;;;21.38;76.40;99042.44;4916568;29;20028;-77
2021/09/11 09:09:39;;;;;;;4.45;3.58;;;;;;;20.91;78.50;99032.78;4916514;29;20036;-77
2021/09/11 09:12:12;;;;;;;4.70;3.80;;;;;;;21.94;75.48;99035.56;4916439;29;20028;-77
2021/09/11 09:14:37;;;;;;;3.92;3.20;;;;;;;22.88;70.25;99028.84;4916771;29;20024;-77
2021/09/11 09:17:11;;;;;;;5.18;3.45;;;;;;;22.69;68.97;99037.09;4916168;29;20496;-77
2021/09/11 09:19:37;;;;;;;3.53;3.22;;;;;;;22.89;67.65;99038.50;4915744;29;20472;-77
2021/09/11 09:22:04;;;;;;;3.38;2.90;;;;;;;24.08;65.01;99032.34;4897302;29;20155;-77
2021/09/11 09:24:33;;;;;;;6.82;3.30;;;;;;;24.39;61.86;99024.91;4897487;29;20116;-77
2021/09/11 09:27:01;;;;;;;3.63;2.85;;;;;;;25.34;61.54;99025.03;4897425;29;20090;-77
2021/09/11 09:29:27;;;;;;;2.90;2.58;;;;;;;25.80;58.63;99024.22;4897569;29;20036;-77
2021/09/11 09:31:56;;;;;;;6.28;2.55;;;;;;;26.69;55.72;99025.25;4895861;29;20364;-77
2021/09/11 09:34:44;;;;;;;2.85;2.58;;;;;;;27.13;53.94;99020.81;4904919;29;20024;-77
2021/09/11 09:37:13;;;;;;;3.65;2.40;;;;;;;26.50;53.05;99025.03;4897223;29;20059;-77
2021/09/11 09:39:39;;;;;;;4.63;2.10;;;;;;;27.33;52.04;99022.66;4897350;29;20025;-77
2021/09/11 09:42:05;;;;;;;3.72;2.30;;;;;;;27.38;52.45;99023.13;4896903;29;20478;-77
2021/09/11 09:44:40;;;;;;;3.10;2.47;;;;;;;26.69;53.23;99025.25;4897217;29;20036;-77
2021/09/11 09:47:06;;;;;;;2.75;2.50;;;;;;;24.02;62.03;99023.00;4897273;29;20017;-77
2021/09/11 09:49:31;;;;;;;2.72;2.50;;;;;;;24.37;59.47;99019.75;4897135;29;20036;-77
2021/09/11 09:51:58;;;;;;;3.67;2.60;;;;;;;24.19;60.90;99024.50;4878035;29;20080;-77
2021/09/11 09:54:23;;;;;;;3.25;2.67;;;;;;;24.18;61.51;99017.50;4878388;29;20108;-77
2021/09/11 09:56:48;;;;;;;7.25;2.70;;;;;;;23.37;62.67;99025.66;4878423;29;20492;-77
2021/09/11 09:59:16;;;;;;;6.28;2.70;;;;;;;23.50;63.14;99013.31;4878738;29;20531;-77
2021/09/11 10:01:41;;;;;;;2.53;2.33;;;;;;;23.77;63.08;99007.97;4889186;29;20033;-77
2021/09/11 10:04:20;;;;;;;3.10;2.78;;;;;;;23.92;62.05;99007.88;4897236;29;20028;-78
2021/09/11 10:06:50;;;;;;;;;;;;;;;25.67;58.63;98999.53;4896727;29;20492;-78
2021/09/11 10:09:15;;;;;;;;;;;;;;;25.15;58.49;99006.16;4897233;29;19926;-78
2021/09/11 10:11:49;;;;;;;2.83;2.53;;;;;;;24.24;60.57;99016.22;4896606;29;19915;-78
2021/09/11 10:14:16;;;;;;;8.68;2.50;;;;;;;24.44;58.90;99017.50;4896848;29;20032;-77
2021/09/11 10:16:44;;;;;;;2.92;2.40;;;;;;;25.19;58.05;99012.91;4896513;29;20029;-77
2021/09/11 10:19:21;;;;;;;8.18;2.58;;;;;;;26.13;55.96;99004.81;4896361;29;20393;-77
2021/09/11 10:21:49;;;;;;;2.70;2.45;;;;;;;26.83;53.38;99011.66;4896414;29;20034;-77
2021/09/11 10:24:22;;;;;;;2.65;2.45;;;;;;;27.31;52.38;98999.81;4896518;29;20031;-73
2021/09/11 10:26:50;;;;;;;2.30;2.10;;;;;;;28.77;48.41;98993.41;4896669;29;20032;-74
2021/09/11 10:29:36;;;;;;;2.65;2.30;;;;;;;28.08;49.61;98999.47;4899338;29;20478;-74
2021/09/11 10:32:07;;;;;;;2.83;2.40;;;;;;;28.15;48.18;98990.00;4903086;29;20477;-74
2021/09/11 10:34:51;;;;;;;2.25;2.05;;;;;;;30.18;44.21;98978.59;4911443;29;20478;-74
2021/09/11 10:37:23;;;;;;;2.20;2.00;;;;;;;32.40;38.95;98978.59;4919446;29;20038;-74
2021/09/11 10:40:27;;;;;;;2.15;1.95;;;;;;;35.63;33.20;98973.75;4919343;29;20355;-74
2021/09/11 10:42:58;;;;;;;4.38;2.05;;;;;;;35.49;32.45;98973.59;4918936;29;20059;-75
2021/09/11 10:45:42;;;;;;;5.10;2.40;;;;;;;30.06;41.44;98974.38;4919200;29;20032;-75
2021/09/11 10:48:44;;;;;;;2.03;1.90;;;;;;;30.70;41.59;98976.19;4919137;29;20374;-74
2021/09/11 10:51:09;;;;;;;1.80;1.70;;;;;;;28.72;45.58;98975.19;4906095;29;20111;-74
2021/09/11 10:53:35;;;;;;;2.27;2.07;;;;;;;28.19;46.68;98970.09;4900203;29;20120;-74
2021/09/11 10:56:21;;;;;;;2.40;2.20;;;;;;;27.37;49.33;98965.56;4900401;29;20348;-74
2021/09/11 10:59:15;;;;;;;2.65;2.13;;;;;;;27.02;49.91;98962.28;4900148;29;20029;-74
2021/09/11 11:02:02;;;;;;;2.30;2.10;;;;;;;26.14;54.04;98963.16;4898124;29;20068;-74
2021/09/11 11:04:30;;;;;;;6.00;2.15;;;;;;;27.38;49.03;98953.94;4905386;29;20025;-74
2021/09/11 11:06:58;;;;;;;3.00;1.80;;;;;;;30.16;44.45;98953.81;4899061;29;20029;-74
2021/09/11 11:09:24;;;;;;;3.22;2.15;;;;;;;31.21;41.50;98961.34;4899953;29;20534;-74
2021/09/11 11:11:52;;;;;;;4.50;1.90;;;;;;;32.68;38.25;98952.31;4898350;29;20032;-74
2021/09/11 11:14:18;;;;;;;4.07;1.77;;;;;;;33.76;36.26;98946.84;4899745;29;20363;-74
2021/09/11 11:16:54;;;;;;;3.58;1.70;;;;;;;33.49;36.99;98945.38;4899686;29;20021;-75
2021/09/11 11:19:20;;;;;;;1.75;1.63;;;;;;;31.95;38.66;98944.81;4914113;29;20064;-75
2021/09/11 11:21:59;;;;;;;2.83;1.80;;;;;;;31.93;38.38;98941.47;4898936;29;20516;-75
2021/09/11 11:24:24;;;;;;;2.65;2.08;;;;;;;27.55;48.24;98949.81;4899551;29;20072;-75
2021/09/11 11:26:50;;;;;;;2.58;2.38;;;;;;;25.46;53.42;98948.13;4899507;29;20033;-75
2021/09/11 11:29:20;;;;;;;2.63;2.10;;;;;;;26.94;51.31;98938.16;4899370;29;20024;-75
2021/09/11 11:31:47;;;;;;;1.90;1.80;;;;;;;29.40;46.24;98933.34;4899841;29;20092;-75
2021/09/11 11:34:12;;;;;;;3.75;2.05;;;;;;;31.26;42.13;98937.59;4911994;29;20024;-74
2021/09/11 11:36:53;;;;;;;2.88;1.88;;;;;;;28.49;47.65;98950.56;4918654;29;20381;-75
2021/09/11 11:39:22;;;;;;;2.00;1.90;;;;;;;26.72;51.80;98950.53;4917892;29;20028;-74
2021/09/11 11:42:00;;;;;;;2.80;1.95;;;;;;;27.82;50.20;98936.00;4918046;29;20084;-80
2021/09/11 11:44:26;;;;;;;3.37;2.20;;;;;;;30.42;42.79;98938.78;4918065;29;20030;-75
2021/09/11 11:46:56;;;;;;;2.00;1.73;;;;;;;27.54;49.42;98928.66;4917916;29;20529;-75
2021/09/11 11:49:22;;;;;;;2.58;2.15;;;;;;;25.59;54.24;98933.78;4918018;29;20171;-75
2021/09/11 11:51:52;;;;;;;3.83;2.47;;;;;;;24.97;56.70;98935.88;4899859;29;20111;-74
2021/09/11 11:54:18;;;;;;;4.28;2.45;;;;;;;24.28;62.63;98939.09;4898915;29;20039;-74
2021/09/11 11:56:50;;;;;;;6.25;2.30;;;;;;;23.38;67.23;98947.16;4899127;29;20032;-74
2021/09/11 11:59:23;;;;;;;4.53;2.30;;;;;;;23.01;65.83;98941.69;4899155;29;20112;-77
2021/09/11 12:01:49;;;;;;;3.28;2.65;;;;;;;22.36;70.44;98952.06;4897202;29;20035;-77
2021/09/11 12:04:16;;;;;;;4.60;2.90;;;;;;;21.97;67.98;98941.25;4906411;29;20052;-77
2021/09/11 12:06:52;;;;;;;5.45;3.05;;;;;;;21.80;70.00;98944.06;4898813;29;20505;-77
2021/09/11 12:09:18;;;;;;;3.95;2.40;;;;;;;21.92;68.73;98945.13;4898952;29;20036;-77
2021/09/11 12:11:46;;;;;;;3.33;2.25;;;;;;;22.41;69.37;98950.84;4898604;29;20033;-78
2021/09/11 12:14:15;;;;;;;4.40;3.65;;;;;;;22.34;68.04;98952.19;4898863;29;20032;-79
2021/09/11 12:16:43;;;;;;;5.30;4.77;;;;;;;22.69;66.99;98960.47;4897697;29;20021;-79
2021/09/11 12:19:20;;;;;;;11.02;2.70;;;;;;;22.58;66.43;98960.34;4898326;29;20043;-78
2021/09/11 12:21:47;;;;;;;5.80;3.25;;;;;;;21.30;75.42;98962.00;4880957;29;20088;-78
2021/09/11 12:24:21;;;;;;;8.25;4.05;;;;;;;20.71;81.23;98953.09;4879129;29;20547;-78
2021/09/11 12:26:47;;;;;;;10.43;4.07;;;;;;;20.49;84.45;98968.38;4879711;29;20084;-78
2021/09/11 12:29:15;;;;;;;6.15;3.45;;;;;;;20.51;85.84;98956.84;4879743;29;20048;-78
2021/09/11 12:31:51;;;;;;;5.43;4.10;;;;;;;20.70;86.73;98956.66;4880703;29;20033;-78
2021/09/11 12:34:18;;;;;;;28.58;15.27;;;;;;;20.89;83.37;98966.16;4889017;29;20028;-80
2021/09/11 12:37:00;;;;;;;5.78;4.00;;;;;;;20.95;81.55;98955.28;4917150;29;20151;-78
2021/09/11 12:39:29;;;;;;;6.80;3.47;;;;;;;20.98;83.23;98962.97;4917158;29;20477;-77
2021/09/11 12:41:57;;;;;;;10.27;3.75;;;;;;;21.06;82.97;98958.13;4916831;29;20028;-77
2021/09/11 12:44:25;;;;;;;7.07;3.88;;;;;;;21.09;82.37;98955.31;4917291;29;20442;-77
2021/09/11 12:46:53;;;;;;;4.03;3.20;;;;;;;21.12;79.24;98947.22;4916930;29;20062;-77
2021/09/11 12:49:19;;;;;;;5.40;3.58;;;;;;;21.09;82.19;98942.16;4917046;29;20036;-77
2021/09/11 12:51:46;;;;;;;8.07;3.40;;;;;;;21.04;83.33;98939.78;4897474;29;20028;-77
2021/09/11 12:54:13;;;;;;;5.30;3.25;;;;;;;21.01;82.33;98942.56;4898015;29;20083;-77
2021/09/11 12:56:39;;;;;;;6.18;3.08;;;;;;;21.42;81.87;98943.75;4897864;29;20135;-77
2021/09/11 12:59:05;;;;;;;6.72;3.22;;;;;;;21.35;79.31;98943.28;4898198;29;20476;-77
2021/09/11 13:01:35;;;;;;;5.28;2.83;;;;;;;21.66;77.37;98946.69;4897464;29;20042;-77
2021/09/11 13:04:01;;;;;;;5.20;2.70;;;;;;;22.01;76.54;98949.84;4904935;29;20036;-77
2021/09/11 13:06:27;;;;;;;3.53;3.05;;;;;;;22.87;73.26;98952.28;4897796;29;20029;-77
2021/09/11 13:08:52;;;;;;;10.85;3.22;;;;;;;23.41;71.07;98939.88;4897695;29;20039;-77
2021/09/11 13:11:18;;;;;;;6.43;3.38;;;;;;;23.95;66.46;98941.50;4897622;29;20032;-77
2021/09/11 13:13:44;;;;;;;4.40;3.10;;;;;;;24.14;67.25;98931.28;4898196;29;20036;-79
2021/09/11 13:16:10;;;;;;;3.83;2.67;;;;;;;24.70;66.59;98923.69;4897759;29;20111;-79
2021/09/11 13:18:37;;;;;;;42.55;30.45;;;;;;;24.63;64.19;98924.28;4897533;29;20036;-79
2021/09/11 13:21:08;;;;;;;3.35;3.05;;;;;;;24.58;65.39;98919.31;4885776;29;20033;-79
2021/09/11 13:23:34;;;;;;;7.57;3.40;;;;;;;23.98;68.96;98912.13;4878676;29;20036;-79
2021/09/11 13:25:59;;;;;;;2.90;2.35;;;;;;;23.26;69.38;98907.38;4878797;29;20028;-79
2021/09/11 13:28:25;;;;;;;5.43;3.15;;;;;;;21.67;72.93;98917.63;4878734;29;20048;-79
2021/09/11 13:30:50;;;;;;;3.85;3.05;;;;;;;22.82;72.41;98908.53;4878712;29;20032;-79
2021/09/11 13:33:15;;;;;;;4.57;3.28;;;;;;;22.04;73.20;98916.16;4899725;29;20107;-78
2021/09/11 13:35:41;;;;;;;4.07;2.33;;;;;;;22.98;69.07;98908.41;4912945;29;20056;-78
2021/09/11 13:38:06;;;;;;;3.45;2.70;;;;;;;23.02;69.32;98901.13;4916132;29;20103;-78
2021/09/11 13:40:31;;;;;;;5.38;2.67;;;;;;;23.26;68.70;98902.09;4916017;29;20120;-78
2021/09/11 13:42:57;;;;;;;6.22;3.30;;;;;;;23.56;67.65;98893.00;4916013;29;20040;-78
2021/09/11 13:45:22;;;;;;;3.25;2.70;;;;;;;23.82;67.59;98894.69;4915985;29;20028;-78
2021/09/11 13:47:50;;;;;;;3.58;2.85;;;;;;;24.31;64.96;98888.53;4915967;29;20028;-78
2021/09/11 13:50:15;;;;;;;5.50;2.92;;;;;;;24.67;63.60;98886.84;4908772;29;20418;-78
2021/09/11 13:52:40;;;;;;;8.15;5.28;;;;;;;24.20;64.32;98887.63;4896833;29;20072;-78
2021/09/11 13:55:06;;;;;;;5.57;2.75;;;;;;;23.33;65.42;98890.13;4897066;29;20037;-78
2021/09/11 13:57:31;;;;;;;4.03;2.70;;;;;;;23.07;67.76;98897.22;4897072;29;20033;-78
2021/09/11 13:59:57;;;;;;;3.97;2.63;;;;;;;23.11;67.39;98897.81;4896858;29;20115;-78
2021/09/11 14:02:22;;;;;;;3.10;2.60;;;;;;;23.18;67.23;98896.47;4894648;29;20029;-78
2021/09/11 14:04:47;;;;;;;5.85;2.25;;;;;;;23.23;66.00;98902.31;4904385;29;20025;-78
2021/09/11 14:07:13;;;;;;;7.97;5.60;;;;;;;23.12;67.61;98898.69;4896707;29;20028;-77
2021/09/11 14:09:38;;;;;;;8.13;5.90;;;;;;;23.05;67.07;98906.19;4895440;29;20075;-80
2021/09/11 14:12:03;;;;;;;3.33;2.42;;;;;;;22.97;67.19;98909.34;4896773;29;20028;-80
2021/09/11 14:14:29;;;;;;;5.32;2.53;;;;;;;23.24;67.14;98905.78;4896795;29;20457;-78
2021/09/11 14:16:54;;;;;;;7.28;2.55;;;;;;;23.40;67.42;98903.78;4896750;29;20035;-79
2021/09/11 14:19:20;;;;;;;7.13;2.55;;;;;;;23.38;66.11;98910.13;4896802;29;20079;-78
2021/09/11 14:21:45;;;;;;;2.95;2.75;;;;;;;23.59;63.85;98913.94;4896410;29;20051;-78
2021/09/11 14:24:10;;;;;;;4.55;2.63;;;;;;;23.45;64.23;98908.75;4896754;29;20025;-78
2021/09/11 14:26:36;;;;;;;3.08;2.22;;;;;;;23.83;64.29;98912.25;4896563;29;20160;-78
2021/09/11 14:29:01;;;;;;;4.97;2.10;;;;;;;23.73;61.97;98900.63;4896755;29;20033;-78
2021/09/11 14:31:29;;;;;;;2.67;1.98;;;;;;;23.66;63.09;98907.31;4896430;29;20052;-78
2021/09/11 14:33:55;;;;;;;3.20;1.85;;;;;;;23.58;60.88;98906.97;4902948;29;20034;-78
2021/09/11 14:36:20;;;;;;;2.13;1.92;;;;;;;23.63;60.66;98904.84;4896542;29;20491;-78
2021/09/11 14:38:45;;;;;;;5.05;1.80;;;;;;;24.15;60.76;98901.19;4896692;29;20032;-78
2021/09/11 14:41:11;;;;;;;1.90;1.70;;;;;;;24.02;57.88;98895.94;4896380;29;20024;-78
2021/09/11 14:43:36;;;;;;;19.25;13.55;;;;;;;24.21;59.31;98906.06;4896689;29;20111;-78
2021/09/11 14:46:02;;;;;;;16.15;12.05;;;;;;;23.85;61.10;98894.50;4896897;29;20032;-78
2021/09/11 14:48:28;;;;;;;2.63;2.15;;;;;;;23.75;60.22;98897.91;4896686;29;20395;-78
2021/09/11 14:50:53;;;;;;;3.58;2.13;;;;;;;23.89;61.00;98895.13;4885721;29;20029;-78
2021/09/11 14:53:18;;;;;;;2.45;1.67;;;;;;;23.68;62.10;98896.63;4878038;29;20040;-78
2021/09/11 14:55:44;;;;;;;3.03;2.08;;;;;;;24.41;59.03;98890.53;4877917;29;20040;-78
2021/09/11 14:58:10;;;;;;;2.75;2.13;;;;;;;23.97;58.95;98891.91;4878030;29;20028;-79
2021/09/11 15:00:35;;;;;;;1.95;1.60;;;;;;;24.07;59.33;98887.66;4876336;29;20033;-79
2021/09/11 15:03:00;;;;;;;2.70;1.88;;;;;;;24.43;58.95;98888.66;4897294;29;20128;-79
2021/09/11 15:05:26;;;;;;;6.03;2.03;;;;;;;23.83;59.51;98899.03;4910030;29;20074;-79
2021/09/11 15:07:51;;;;;;;3.00;1.75;;;;;;;23.71;60.73;98891.97;4915015;29;20587;-79
2021/09/11 15:10:17;;;;;;;1.80;1.70;;;;;;;23.55;60.75;98896.63;4915312;29;20111;-79
2021/09/11 15:12:42;;;;;;;5.53;2.10;;;;;;;23.24;61.56;98897.84;4914928;29;20028;-79
2021/09/11 15:15:08;;;;;;;4.10;2.08;;;;;;;23.37;62.61;98898.72;4917448;29;20028;-79
2021/09/11 15:17:34;;;;;;;2.10;1.90;;;;;;;23.41;62.65;98894.06;4918556;29;20035;-79
2021/09/11 15:20:04;;;;;;;2.08;1.92;;;;;;;23.28;62.44;98900.19;4915010;29;20032;-79
2021/09/11 15:22:31;;;;;;;1.75;1.65;;;;;;;23.07;62.64;98896.38;4899648;29;20032;-79
2021/09/11 15:24:57;;;;;;;3.83;2.00;;;;;;;23.05;63.58;98895.59;4899713;29;20039;-79
2021/09/11 15:27:23;;;;;;;4.47;2.20;;;;;;;23.06;63.74;98897.28;4899629;29;20029;-79
2021/09/11 15:29:49;;;;;;;3.28;2.05;;;;;;;23.00;63.40;98892.44;4899624;29;20100;-79
2021/09/11 15:32:15;;;;;;;3.15;2.13;;;;;;;22.82;64.84;98892.69;4897945;29;20024;-79
2021/09/11 15:34:40;;;;;;;2.60;2.20;;;;;;;22.37;66.16;98893.03;4907068;29;20030;-78
2021/09/11 15:37:06;;;;;;;15.00;11.00;;;;;;;22.25;66.93;98898.16;4899539;29;20096;-79
2021/09/11 15:39:32;;;;;;;3.90;2.17;;;;;;;22.03;67.42;98893.34;4899649;29;20067;-79
2021/09/11 15:41:57;;;;;;;2.33;2.10;;;;;;;21.83;68.23;98898.19;4899204;29;20037;-79
2021/09/11 15:44:22;;;;;;;2.03;1.83;;;;;;;21.78;68.68;98896.69;4899477;29;20596;-79
2021/09/11 15:46:48;;;;;;;2.67;1.90;;;;;;;21.89;68.43;98895.16;4899751;29;20040;-79
2021/09/11 15:49:13;;;;;;;2.75;1.67;;;;;;;21.91;68.45;98893.31;4899166;29;20032;-79
2021/09/11 15:51:39;;;;;;;1.75;1.65;;;;;;;21.85;68.99;98889.22;4882928;29;20033;-78
2021/09/11 15:54:04;;;;;;;2.35;1.80;;;;;;;21.71;69.80;98876.91;4880580;29;20029;-78
2021/09/11 15:56:30;;;;;;;6.53;5.28;;;;;;;21.66;70.43;98886.91;4880570;29;20073;-78
2021/09/11 15:58:56;;;;;;;1.75;1.55;;;;;;;21.50;69.97;98894.03;4880392;29;20032;-78
2021/09/11 16:01:23;;;;;;;3.42;1.70;;;;;;;21.44;70.98;98894.44;4879970;29;20033;-78
2021/09/11 16:03:49;;;;;;;1.85;1.75;;;;;;;21.44;71.56;98883.88;4906823;29;20549;-78
2021/09/11 16:06:14;;;;;;;2.40;1.73;;;;;;;21.39;72.74;98885.94;4917714;29;20106;-78
2021/09/11 16:08:39;;;;;;;2.33;1.77;;;;;;;21.53;71.92;98889.44;4917786;29;20032;-78
2021/09/11 16:11:05;;;;;;;3.10;1.75;;;;;;;21.50;72.57;98889.63;4917653;29;20112;-79
2021/09/11 16:13:30;;;;;;;7.57;5.72;;;;;;;21.69;71.64;98894.63;4917910;29;20020;-79
2021/09/11 16:15:55;;;;;;;5.07;4.57;;;;;;;21.65;74.94;98903.66;4917696;29;20486;-79
2021/09/11 16:18:21;;;;;;;1.95;1.85;;;;;;;21.64;76.41;98894.06;4917604;29;20024;-79
2021/09/11 16:20:47;;;;;;;3.83;2.72;;;;;;;21.72;75.80;98898.88;4907640;29;20036;-79
2021/09/11 16:23:13;;;;;;;3.78;2.60;;;;;;;21.64;76.77;98901.13;4898672;29;20028;-78
2021/09/11 16:25:39;;;;;;;4.03;2.33;;;;;;;21.67;75.73;98904.44;4896347;29;20434;-78
2021/09/11 16:28:05;;;;;;;3.47;3.03;;;;;;;21.44;76.60;98904.97;4898630;29;20021;-79
2021/09/11 16:30:31;;;;;;;4.95;3.28;;;;;;;21.44;76.59;98897.06;4898494;29;20043;-79
2021/09/11 16:32:56;;;;;;;4.88;2.97;;;;;;;21.46;77.06;98913.63;4889104;29;20398;-79
2021/09/11 16:35:21;;;;;;;4.47;2.83;;;;;;;21.32;77.58;98918.88;4911589;29;20091;-78
2021/09/11 16:37:48;;;;;;;5.55;2.90;;;;;;;21.28;78.34;98911.13;4917244;29;20039;-78
2021/09/11 16:40:14;;;;;;;4.18;2.72;;;;;;;21.17;79.53;98923.22;4917316;29;20088;-78
2021/09/11 16:42:39;;;;;;;3.30;3.00;;;;;;;21.42;77.66;98920.00;4916976;29;20114;-78
2021/09/11 16:45:06;;;;;;;4.25;2.92;;;;;;;21.34;76.44;98914.38;4917187;29;20107;-78
2021/09/11 16:47:31;;;;;;;4.18;2.90;;;;;;;21.15;77.25;98914.59;4916997;29;20099;-78
2021/09/11 16:49:56;;;;;;;3.72;2.78;;;;;;;21.14;76.63;98912.91;4913786;29;20064;-78
2021/09/11 16:52:22;;;;;;;3.33;3.00;;;;;;;21.09;77.23;98921.06;4897864;29;20124;-78
2021/09/11 16:54:47;;;;;;;3.75;3.38;;;;;;;20.95;77.96;98923.66;4898316;29;20024;-78
2021/09/11 16:57:13;;;;;;;6.68;2.85;;;;;;;21.03;78.29;98926.66;4898111;29;20091;-78
2021/09/11 16:59:38;;;;;;;3.90;2.63;;;;;;;20.95;78.50;98923.66;4898087;29;20414;-78
2021/09/11 17:02:04;;;;;;;3.03;2.65;;;;;;;20.88;79.25;98923.16;4895989;29;20108;-78
2021/09/11 17:04:29;;;;;;;3.42;2.53;;;;;;;20.90;78.47;98926.56;4905735;29;20175;-78
2021/09/11 17:06:55;;;;;;;7.10;3.65;;;;;;;20.95;77.92;98929.78;4897802;29;20062;-78
2021/09/11 17:09:20;;;;;;;6.03;4.00;;;;;;;20.64;79.62;98935.94;4896633;29;20402;-78
2021/09/11 17:11:46;;;;;;;4.85;4.15;;;;;;;20.49;80.04;98932.38;4897660;29;20033;-78
2021/09/11 17:14:11;;;;;;;4.63;3.55;;;;;;;20.54;80.41;98930.34;4897723;29;20028;-78
2021/09/11 17:16:36;;;;;;;7.65;3.30;;;;;;;20.54;79.50;98930.34;4897716;29;20028;-78
2021/09/11 17:19:05;;;;;;;7.22;2.83;;;;;;;20.42;79.09;98930.16;4897566;29;20035;-78
2021/09/11 17:21:33;;;;;;;6.13;3.00;;;;;;;20.45;78.30;98924.69;4882201;29;20117;-78
2021/09/11 17:23:59;;;;;;;6.30;2.42;;;;;;;20.60;78.52;98929.16;4878756;29;20475;-78
2021/09/11 17:26:24;;;;;;;3.78;3.08;;;;;;;20.39;79.36;98930.31;4878922;29;20017;-78
2021/09/11 17:28:50;;;;;;;3.35;3.05;;;;;;;20.36;79.60;98936.63;4878853;29;20085;-78
2021/09/11 17:31:15;;;;;;;3.63;3.10;;;;;;;20.38;80.69;98933.88;4878522;29;20464;-78
2021/09/11 17:33:41;;;;;;;5.85;3.20;;;;;;;20.17;80.99;98931.50;4903498;29;20033;-78
2021/09/11 17:36:06;;;;;;;3.20;2.90;;;;;;;20.15;81.14;98932.50;4916147;29;20494;-78
2021/09/11 17:38:32;;;;;;;6.38;3.90;;;;;;;20.16;80.70;98932.44;4916050;29;20107;-78
2021/09/11 17:40:57;;;;;;;3.15;2.70;;;;;;;20.13;81.56;98929.97;4916131;29;20032;-78
2021/09/11 17:43:23;;;;;;;3.08;2.78;;;;;;;20.19;79.97;98929.63;4915954;29;20111;-78
2021/09/11 17:45:48;;;;;;;3.75;2.50;;;;;;;20.09;80.20;98928.44;4916065;29;20044;-79
2021/09/11 17:48:13;;;;;;;3.63;2.72;;;;;;;20.00;81.04;98934.19;4915991;29;20028;-79
2021/09/11 17:50:39;;;;;;;5.75;2.75;;;;;;;20.06;80.72;98928.59;4907270;29;20052;-79
2021/09/11 17:53:04;;;;;;;3.08;2.30;;;;;;;20.11;80.53;98937.09;4897091;29;20028;-79
2021/09/11 17:55:32;;;;;;;7.78;3.47;;;;;;;19.89;82.14;98933.94;4897286;29;20070;-78
2021/09/11 17:57:58;;;;;;;3.00;2.70;;;;;;;20.14;79.70;98936.94;4897055;29;20079;-78
2021/09/11 18:00:24;;;;;;;5.28;2.55;;;;;;;19.91;81.47;98930.28;4896799;29;20031;-78
2021/09/11 18:02:49;;;;;;;2.72;2.40;;;;;;;20.05;78.85;98932.16;4896591;29;20036;-78
2021/09/11 18:05:15;;;;;;;3.70;2.70;;;;;;;19.95;79.57;98941.50;4903600;29;20538;-78
2021/09/11 18:07:40;;;;;;;7.28;3.15;;;;;;;19.95;79.27;98938.84;4896962;29;20057;-78
2021/09/11 18:10:07;;;;;;;2.30;2.10;;;;;;;19.87;80.53;98938.41;4896900;29;20036;-78
2021/09/11 18:12:33;;;;;;;2.58;2.38;;;;;;;19.78;80.94;98945.03;4896725;29;20054;-78
2021/09/11 18:14:58;;;;;;;3.35;2.47;;;;;;;19.98;79.89;98946.59;4896739;29;20029;-78
2021/09/11 18:17:24;;;;;;;2.30;2.10;;;;;;;19.84;79.84;98943.84;4896833;29;20036;-78
2021/09/11 18:19:49;;;;;;;3.58;2.30;;;;;;;19.80;79.48;98950.19;4894460;29;20060;-78
2021/09/11 18:22:15;;;;;;;2.88;2.20;;;;;;;19.91;78.60;98953.09;4877836;29;20029;-78
2021/09/11 18:24:41;;;;;;;7.82;2.33;;;;;;;19.74;79.92;98954.84;4878174;29;20029;-78
2021/09/11 18:27:06;;;;;;;4.72;2.92;;;;;;;19.72;80.01;98956.69;4878156;29;20036;-78
2021/09/11 18:29:32;;;;;;;3.15;2.50;;;;;;;19.67;79.22;98957.88;4878091;29;20037;-78
2021/09/11 18:31:57;;;;;;;3.00;2.28;;;;;;;19.50;80.48;98962.19;4883204;29;20035;-78
2021/09/11 18:34:23;;;;;;;2.65;2.25;;;;;;;19.51;80.92;98968.31;4907717;29;20166;-78